Time;durP1;ratioP1;P1;durP2;ratioP2;P2;SDS_P1;SDS_P2;PMS_P1;PMS_P2;Temp;Humidity;BMP_temperature;BMP_pressure;BME280_temperature;BME280_humidity;BME280_pressure;Samples;Min_cycle;Max_cycle;Signal;HPM_P1;HPM_P2
2022/03/26 00:06:35;;;;;;;47.7;65.1;;;;;;;3.4;66.3;99770;;;;
2022/03/26 00:16:35;;;;;;;47.7;65.1;;;;;;;3.4;65.6;99770;;;;
2022/03/26 00:27:35;;;;;;;43.8;56.4;;;;;;;3.3;65.1;99760;;;;
2022/03/26 00:38:35;;;;;;;43.8;56.4;;;;;;;3;65.7;99750;;;;
2022/03/26 00:49:35;;;;;;;43.8;56.4;;;;;;;2.8;65.8;99750;;;;
2022/03/26 00:59:35;;;;;;;45.5;57.2;;;;;;;2.3;66.3;99750;;;;
2022/03/26 01:10:35;;;;;;;45.5;57.2;;;;;;;2.1;67.4;99750;;;;
2022/03/26 01:20:35;;;;;;;45.5;57.2;;;;;;;2.1;67.9;99750;;;;
2022/03/26 01:30:35;;;;;;;39;50.8;;;;;;;2;68;99740;;;;
2022/03/26 01:41:35;;;;;;;39;50.8;;;;;;;2.1;68.4;99740;;;;
2022/03/26 01:51:35;;;;;;;39;50.8;;;;;;;1.9;68.2;99750;;;;
2022/03/26 02:01:35;;;;;;;39.5;52.5;;;;;;;1.9;68.8;99750;;;;
2022/03/26 02:11:35;;;;;;;39.5;52.5;;;;;;;1.7;69.2;99760;;;;
2022/03/26 02:21:35;;;;;;;39.5;52.5;;;;;;;1.8;70.3;99760;;;;
2022/03/26 02:32:35;;;;;;;44.4;60.3;;;;;;;2.4;70.3;99750;;;;
2022/03/26 02:43:35;;;;;;;44.4;60.3;;;;;;;2.7;69.1;99750;;;;
2022/03/26 02:54:35;;;;;;;48.1;60.5;;;;;;;2.7;68.6;99740;;;;
2022/03/26 03:04:35;;;;;;;48.1;60.5;;;;;;;2.6;68;99740;;;;
2022/03/26 03:15:35;;;;;;;48.1;60.5;;;;;;;2.5;68;99740;;;;
2022/03/26 03:25:35;;;;;;;51.6;68.1;;;;;;;2.5;68.7;99730;;;;
2022/03/26 03:35:35;;;;;;;51.6;68.1;;;;;;;2.4;68.6;99730;;;;
2022/03/26 03:46:35;;;;;;;51.6;68.1;;;;;;;2.4;69;99730;;;;
2022/03/26 03:56:35;;;;;;;55.8;70.1;;;;;;;2.4;69.6;99730;;;;
2022/03/26 04:06:35;;;;;;;55.8;70.1;;;;;;;2.3;69.6;99720;;;;
2022/03/26 04:16:35;;;;;;;55.8;70.1;;;;;;;2.4;70.2;99720;;;;
2022/03/26 04:27:35;;;;;;;70.4;84.1;;;;;;;2.4;70.3;99720;;;;
2022/03/26 04:37:35;;;;;;;70.4;84.1;;;;;;;2.3;70.1;99720;;;;
2022/03/26 04:48:35;;;;;;;70.4;84.1;;;;;;;2.2;70;99720;;;;
2022/03/26 04:58:35;;;;;;;66.9;89;;;;;;;2.1;70;99720;;;;
2022/03/26 05:09:35;;;;;;;66.9;89;;;;;;;2;70;99720;;;;
2022/03/26 05:19:35;;;;;;;66.9;89;;;;;;;2;70.1;99710;;;;
2022/03/26 05:30:35;;;;;;;66.3;86.7;;;;;;;2.3;70.2;99710;;;;
2022/03/26 05:40:35;;;;;;;66.3;86.7;;;;;;;2.7;69.7;99690;;;;
2022/03/26 05:51:35;;;;;;;66.3;86.7;;;;;;;3.5;67;99680;;;;
2022/03/26 06:01:35;;;;;;;46.6;60;;;;;;;4;66.4;99690;;;;
2022/03/26 06:12:35;;;;;;;46.6;60;;;;;;;4.3;65.8;99690;;;;
2022/03/26 06:22:35;;;;;;;46.6;60;;;;;;;4.8;64.7;99690;;;;
2022/03/26 06:32:35;;;;;;;53.2;65;;;;;;;5.3;63.1;99690;;;;
2022/03/26 06:42:35;;;;;;;53.2;65;;;;;;;5.9;62.4;99700;;;;
2022/03/26 06:53:35;;;;;;;41.6;60.9;;;;;;;6.4;60.8;99710;;;;
2022/03/26 07:03:35;;;;;;;41.6;60.9;;;;;;;6.9;58.9;99710;;;;
2022/03/26 07:13:35;;;;;;;41.6;60.9;;;;;;;7.5;58.4;99710;;;;
2022/03/26 07:23:35;;;;;;;42.9;54.9;;;;;;;8.1;56.9;99710;;;;
2022/03/26 07:33:35;;;;;;;42.9;54.9;;;;;;;8.8;54.8;99720;;;;
2022/03/26 07:44:35;;;;;;;42.9;54.9;;;;;;;9.2;53.6;99720;;;;
2022/03/26 07:55:35;;;;;;;41.2;49.6;;;;;;;9.8;53.2;99730;;;;
2022/03/26 08:05:35;;;;;;;41.2;49.6;;;;;;;10.3;51.8;99720;;;;
2022/03/26 08:16:35;;;;;;;41.2;49.6;;;;;;;11;50.6;99720;;;;
2022/03/26 08:26:35;;;;;;;36.2;44.6;;;;;;;11.4;49.7;99720;;;;
2022/03/26 08:36:37;;;;;;;36.2;44.6;;;;;;;11.8;49.5;99700;;;;
2022/03/26 08:46:35;;;;;;;36.2;44.6;;;;;;;12.2;49.6;99680;;;;
2022/03/26 08:57:35;;;;;;;27.4;41.1;;;;;;;12.8;48.1;99680;;;;
2022/03/26 09:07:35;;;;;;;27.4;41.1;;;;;;;13.1;47.8;99660;;;;
2022/03/26 09:17:36;;;;;;;27.4;41.1;;;;;;;13.6;48.4;99650;;;;
2022/03/26 09:28:35;;;;;;;20.8;35.6;;;;;;;13.7;47.5;99650;;;;
2022/03/26 09:38:35;;;;;;;20.8;35.6;;;;;;;13.9;47.1;99630;;;;
2022/03/26 09:49:35;;;;;;;20.8;35.6;;;;;;;14.4;46.6;99620;;;;
2022/03/26 09:59:35;;;;;;;17.2;23.6;;;;;;;14.6;45.8;99610;;;;
2022/03/26 10:10:35;;;;;;;17.2;23.6;;;;;;;14.7;45.3;99600;;;;
2022/03/26 10:20:35;;;;;;;17.2;23.6;;;;;;;14.8;45.6;99580;;;;
2022/03/26 10:32:39;;;;;;;16.1;22.4;;;;;;;15.2;43.8;99580;;;;
2022/03/26 10:42:35;;;;;;;16.1;22.4;;;;;;;15.5;44.1;99580;;;;
2022/03/26 10:52:35;;;;;;;16.1;22.4;;;;;;;15.3;43.2;99560;;;;
2022/03/26 11:03:36;;;;;;;15.5;22.4;;;;;;;15.4;42.9;99560;;;;
2022/03/26 11:13:35;;;;;;;15.5;22.4;;;;;;;15.9;42.4;99550;;;;
2022/03/26 11:24:40;;;;;;;16.6;22.1;;;;;;;16.1;41.6;99520;;;;
2022/03/26 11:34:35;;;;;;;16.6;22.1;;;;;;;16.8;40.8;99500;;;;
2022/03/26 11:55:35;;;;;;;17.4;23.2;;;;;;;17;40;99480;;;;
2022/03/26 12:06:36;;;;;;;17.4;23.2;;;;;;;17.1;39.3;99450;;;;
2022/03/26 12:16:35;;;;;;;17.4;23.2;;;;;;;16.9;39.3;99450;;;;
2022/03/26 12:26:35;;;;;;;13.2;21.1;;;;;;;16.5;39.3;99450;;;;
2022/03/26 12:37:35;;;;;;;13.2;21.1;;;;;;;17.2;39.1;99420;;;;
2022/03/26 12:47:35;;;;;;;13.2;21.1;;;;;;;17.5;37.5;99420;;;;
2022/03/26 12:58:56;;;;;;;12.1;19.1;;;;;;;17.9;37;99400;;;;
2022/03/26 13:08:36;;;;;;;12.1;19.1;;;;;;;16.8;36.3;99400;;;;
2022/03/26 13:18:35;;;;;;;12.1;19.1;;;;;;;17.2;36;99380;;;;
2022/03/26 13:29:36;;;;;;;10.2;19.2;;;;;;;17.6;35.7;99360;;;;
2022/03/26 13:40:36;;;;;;;10.2;19.2;;;;;;;18.2;34.9;99360;;;;
2022/03/26 13:50:35;;;;;;;10.2;19.2;;;;;;;18;35.1;99340;;;;
2022/03/26 14:01:36;;;;;;;11.5;20.4;;;;;;;18;35;99330;;;;
2022/03/26 14:11:35;;;;;;;11.5;20.4;;;;;;;17.6;35.9;99320;;;;
2022/03/26 14:21:35;;;;;;;11.5;20.4;;;;;;;17.4;35.7;99310;;;;
2022/03/26 14:31:35;;;;;;;11.2;17.1;;;;;;;17.2;36.7;99310;;;;
2022/03/26 14:41:35;;;;;;;11.2;17.1;;;;;;;17.5;36.1;99310;;;;
2022/03/26 14:52:35;;;;;;;11.2;17.1;;;;;;;17.4;36;99290;;;;
2022/03/26 15:03:35;;;;;;;9.4;13.2;;;;;;;17.7;35.5;99290;;;;
2022/03/26 15:13:35;;;;;;;9.4;13.2;;;;;;;17.3;36.2;99290;;;;
2022/03/26 15:23:35;;;;;;;10.1;17.7;;;;;;;16.7;36.9;99310;;;;
2022/03/26 15:34:35;;;;;;;10.1;17.7;;;;;;;16.4;37.4;99300;;;;
2022/03/26 15:45:35;;;;;;;10.1;17.7;;;;;;;16.2;38.7;99320;;;;
2022/03/26 15:55:35;;;;;;;8.7;15.9;;;;;;;15.8;40.9;99330;;;;
2022/03/26 16:05:35;;;;;;;8.7;15.9;;;;;;;15.4;43;99350;;;;
2022/03/26 16:15:35;;;;;;;8.7;15.9;;;;;;;15.2;42.8;99340;;;;
2022/03/26 16:26:35;;;;;;;8.6;15;;;;;;;15;44;99360;;;;
2022/03/26 16:36:35;;;;;;;8.6;15;;;;;;;14.7;45.2;99360;;;;
2022/03/26 16:47:35;;;;;;;8.6;15;;;;;;;14.6;45.7;99370;;;;
2022/03/26 16:58:36;;;;;;;7.5;13.3;;;;;;;14.4;47.3;99380;;;;
2022/03/26 17:09:36;;;;;;;7.5;13.3;;;;;;;14.3;47.5;99380;;;;
2022/03/26 17:20:35;;;;;;;7.5;13.3;;;;;;;14.2;48.1;99380;;;;
2022/03/26 17:30:35;;;;;;;8;15.2;;;;;;;14.1;48.3;99400;;;;
2022/03/26 17:40:35;;;;;;;8;15.2;;;;;;;14;49.4;99410;;;;
2022/03/26 17:51:35;;;;;;;8;15.2;;;;;;;14;49.9;99420;;;;
2022/03/26 18:01:35;;;;;;;11.4;16.9;;;;;;;13.9;51.5;99450;;;;
2022/03/26 18:11:35;;;;;;;11.4;16.9;;;;;;;13.6;53.8;99470;;;;
2022/03/26 18:21:36;;;;;;;11.4;16.9;;;;;;;13.3;56;99480;;;;
2022/03/26 18:32:35;;;;;;;9;14.1;;;;;;;13.2;56.9;99510;;;;
2022/03/26 18:42:38;;;;;;;9;14.1;;;;;;;12.8;60.3;99530;;;;
2022/03/26 18:52:36;;;;;;;14.1;22.3;;;;;;;12.2;66.8;99570;;;;
2022/03/26 19:03:36;;;;;;;14.1;22.3;;;;;;;11.1;75.2;99590;;;;
2022/03/26 19:13:40;;;;;;;14.1;22.3;;;;;;;10.5;79.5;99620;;;;
2022/03/26 19:23:36;;;;;;;11.7;14.7;;;;;;;10.2;81.1;99630;;;;
2022/03/26 19:33:35;;;;;;;11.7;14.7;;;;;;;10;80.7;99630;;;;
2022/03/26 19:43:36;;;;;;;11.7;14.7;;;;;;;9.9;78.9;99640;;;;
2022/03/26 19:54:35;;;;;;;21.2;23.9;;;;;;;9.8;77.9;99650;;;;
2022/03/26 20:04:35;;;;;;;21.2;23.9;;;;;;;9.8;76.7;99660;;;;
2022/03/26 20:15:35;;;;;;;21.2;23.9;;;;;;;9.7;75.6;99670;;;;
2022/03/26 20:25:35;;;;;;;20.9;25.4;;;;;;;9.7;75;99690;;;;
2022/03/26 20:35:36;;;;;;;20.9;25.4;;;;;;;9.7;73.8;99710;;;;
2022/03/26 20:45:35;;;;;;;20.9;25.4;;;;;;;9.6;73.5;99730;;;;
2022/03/26 20:55:36;;;;;;;29.6;36.6;;;;;;;9.6;72.3;99760;;;;
2022/03/26 21:06:35;;;;;;;29.6;36.6;;;;;;;9.2;68.9;99770;;;;
2022/03/26 21:16:36;;;;;;;29.6;36.6;;;;;;;8.8;67.5;99790;;;;
2022/03/26 21:27:35;;;;;;;11.3;17.5;;;;;;;8.4;68.6;99800;;;;
2022/03/26 21:38:35;;;;;;;11.3;17.5;;;;;;;8.3;69.6;99830;;;;
2022/03/26 21:48:36;;;;;;;11.3;17.5;;;;;;;8.1;69.7;99830;;;;
2022/03/26 21:59:35;;;;;;;11.7;16.6;;;;;;;7.8;70.4;99840;;;;
2022/03/26 22:09:35;;;;;;;11.7;16.6;;;;;;;7.6;70.8;99860;;;;
2022/03/26 22:19:35;;;;;;;11.7;16.6;;;;;;;7.4;71.3;99870;;;;
2022/03/26 22:29:35;;;;;;;13.3;16.7;;;;;;;7.2;72.1;99870;;;;
2022/03/26 22:39:35;;;;;;;13.3;16.7;;;;;;;7.1;72.7;99890;;;;
2022/03/26 22:49:35;;;;;;;13.3;16.7;;;;;;;7;73.3;99900;;;;
2022/03/26 23:00:35;;;;;;;14.8;17.7;;;;;;;7.1;73.6;99900;;;;
2022/03/26 23:10:36;;;;;;;14.8;17.7;;;;;;;7.2;73.2;99910;;;;
2022/03/26 23:21:35;;;;;;;14.8;17.7;;;;;;;7.2;73.1;99920;;;;
2022/03/26 23:32:35;;;;;;;13.7;17.7;;;;;;;7.3;73.1;99940;;;;
2022/03/26 23:43:35;;;;;;;13.7;17.7;;;;;;;7.4;72.8;99960;;;;
2022/03/26 23:53:35;;;;;;;16;22.1;;;;;;;7.5;72.7;99970;;;;
